Time;durP1;ratioP1;P1;durP2;ratioP2;P2;SDS_P1;SDS_P2;PMS_P1;PMS_P2;Temp;Humidity;BMP_temperature;BMP_pressure;BME280_temperature;BME280_humidity;BME280_pressure;Samples;Min_cycle;Max_cycle;Signal;HPM_P1;HPM_P2
2023/12/23 00:00:07;;;;;;;;;;;14.30;99.90;;;;;;5110530;28;20368;-79
2023/12/23 00:02:32;;;;;;;;;;;14.30;99.90;;;;;;5111033;28;19908;-79
2023/12/23 00:04:58;;;;;;;;;;;14.30;99.90;;;;;;5110637;28;20370;-79
2023/12/23 00:07:24;;;;;;;;;;;14.30;99.90;;;;;;5110585;28;19989;-79
2023/12/23 00:09:50;;;;;;;;;;;14.30;99.90;;;;;;5110355;28;19908;-79
2023/12/23 00:12:15;;;;;;;;;;;14.30;99.90;;;;;;5110713;28;19908;-79
2023/12/23 00:14:41;;;;;;;;;;;14.30;99.90;;;;;;5110615;28;19908;-79
2023/12/23 00:17:07;;;;;;;;;;;14.30;99.90;;;;;;5110848;28;19989;-79
2023/12/23 00:19:33;;;;;;;;;;;14.30;99.90;;;;;;5110620;28;19907;-79
2023/12/23 00:21:59;;;;;;;;;;;14.30;99.90;;;;;;5091859;28;19921;-78
2023/12/23 00:24:28;;;;;;;;;;;14.20;99.90;;;;;;5110836;28;20011;-79
2023/12/23 00:26:57;;;;;;;;;;;14.20;99.90;;;;;;5113433;28;20000;-79
2023/12/23 00:29:26;;;;;;;;;;;14.20;99.90;;;;;;5113881;28;20309;-79
2023/12/23 00:31:53;;;;;;;;;;;14.40;99.90;;;;;;5113975;28;19965;-78
2023/12/23 00:34:19;;;;;;;;;;;14.30;99.90;;;;;;5114424;28;19916;-78
2023/12/23 00:36:44;;;;;;;;;;;14.30;99.90;;;;;;5113774;28;19983;-78
2023/12/23 00:39:10;;;;;;;;;;;14.30;99.90;;;;;;5113899;28;19908;-79
2023/12/23 00:41:37;;;;;;;;;;;14.30;99.90;;;;;;5113746;28;19979;-81
2023/12/23 00:44:03;;;;;;;;;;;14.20;99.90;;;;;;5113728;28;20010;-79
2023/12/23 00:46:29;;;;;;;;;;;14.30;99.90;;;;;;5095304;28;20330;-79
2023/12/23 00:48:55;;;;;;;;;;;14.30;99.90;;;;;;5113914;28;19911;-79
2023/12/23 00:51:21;;;;;;;;;;;14.30;99.90;;;;;;5113766;28;19908;-79
2023/12/23 00:53:46;;;;;;;;;;;14.30;99.90;;;;;;5113698;28;20041;-79
2023/12/23 00:56:18;;;;;;;;;;;14.20;99.90;;;;;;5113787;28;19908;-79
2023/12/23 00:58:44;;;;;;;;;;;14.20;99.90;;;;;;5113642;28;20391;-79
2023/12/23 01:01:10;;;;;;;;;;;14.20;99.90;;;;;;5113411;28;20027;-79
2023/12/23 01:03:35;;;;;;;;;;;14.10;99.90;;;;;;5113534;28;19976;-79
2023/12/23 01:06:01;;;;;;;;;;;13.90;99.90;;;;;;5113419;28;20006;-79
2023/12/23 01:08:28;;;;;;;;;;;13.90;99.90;;;;;;5113368;28;19911;-79
2023/12/23 01:10:54;;;;;;;;;;;13.90;99.90;;;;;;5113407;28;19987;-79
2023/12/23 01:13:21;;;;;;;;;;;13.90;99.90;;;;;;5094808;28;20264;-79
2023/12/23 01:15:47;;;;;;;;;;;14.00;99.90;;;;;;5113450;28;19908;-80
2023/12/23 01:18:12;;;;;;;;;;;14.00;99.90;;;;;;5113254;28;20393;-79
2023/12/23 01:20:39;;;;;;;;;;;14.00;99.90;;;;;;5113198;28;20017;-79
2023/12/23 01:23:06;;;;;;;;;;;14.00;99.90;;;;;;5112881;28;20332;-80
2023/12/23 01:25:31;;;;;;;;;;;14.00;99.90;;;;;;5094579;28;19961;-79
2023/12/23 01:28:04;;;;;;;;;;;13.90;99.90;;;;;;5112824;28;20305;-78
2023/12/23 01:30:35;;;;;;;;;;;13.90;99.90;;;;;;5094238;28;19979;-79
2023/12/23 01:33:02;;;;;;;;;;;13.90;99.90;;;;;;5112770;28;19919;-80
2023/12/23 01:35:28;;;;;;;;;;;13.80;99.90;;;;;;5112710;28;20072;-80
2023/12/23 01:37:54;;;;;;;;;;;13.80;99.90;;;;;;5093279;28;19958;-79
2023/12/23 01:40:20;;;;;;;;;;;13.90;99.90;;;;;;5114569;28;20236;-79
2023/12/23 01:42:45;;;;;;;;;;;13.80;99.90;;;;;;5113472;28;19919;-79
2023/12/23 01:45:11;;;;;;;;;;;13.80;99.90;;;;;;5112922;28;20425;-80
2023/12/23 01:47:40;;;;;;;;;;;13.70;99.90;;;;;;5112458;28;20026;-78
2023/12/23 01:50:07;;;;;;;;;;;13.70;99.90;;;;;;5112684;28;20228;-79
2023/12/23 01:52:34;;;;;;;;;;;13.70;99.90;;;;;;5112390;28;20385;-79
2023/12/23 01:55:00;;;;;;;;;;;13.60;99.90;;;;;;5112605;28;19908;-79
2023/12/23 01:57:26;;;;;;;;;;;13.70;99.90;;;;;;5112380;28;19907;-79
2023/12/23 01:59:52;;;;;;;;;;;13.70;99.90;;;;;;5111813;28;20015;-79
2023/12/23 02:02:17;;;;;;;;;;;13.70;99.90;;;;;;5112563;28;19915;-79
2023/12/23 02:04:43;;;;;;;;;;;13.70;99.90;;;;;;5112419;28;19967;-79
2023/12/23 02:07:11;;;;;;;;;;;13.60;99.90;;;;;;5112372;28;20371;-79
2023/12/23 02:09:37;;;;;;;;;;;13.60;99.90;;;;;;5112106;28;20405;-79
2023/12/23 02:12:21;;;;;;;;;;;13.60;99.90;;;;;;5112101;28;19908;-79
2023/12/23 02:15:16;;;;;;;;;;;13.60;99.90;;;;;;5093337;28;19926;-79
2023/12/23 02:17:44;;;;;;;;;;;13.60;99.90;;;;;;5029078;28;19910;-79
2023/12/23 02:20:11;;;;;;;;;;;13.70;99.90;;;;;;5029347;28;19909;-79
2023/12/23 02:22:38;;;;;;;;;;;13.80;99.90;;;;;;5028995;28;19910;-78
2023/12/23 02:25:05;;;;;;;;;;;13.90;99.90;;;;;;5029542;28;19916;-80
2023/12/23 02:27:35;;;;;;;;;;;14.00;99.90;;;;;;5028799;28;19917;-79
2023/12/23 02:30:01;;;;;;;;;;;14.10;99.90;;;;;;5029342;28;19920;-80
2023/12/23 02:32:27;;;;;;;;;;;14.10;99.90;;;;;;5028790;28;19921;-80
2023/12/23 02:34:54;;;;;;;;;;;14.20;99.90;;;;;;5012485;28;20375;-81
2023/12/23 02:37:20;;;;;;;;;;;14.20;99.90;;;;;;5029183;28;20004;-79
2023/12/23 02:39:46;;;;;;;;;;;14.20;99.90;;;;;;5028806;28;20349;-81
2023/12/23 02:42:11;;;;;;;;;;;14.20;99.90;;;;;;5028725;28;19981;-80
2023/12/23 02:44:37;;;;;;;;;;;14.30;99.90;;;;;;5012198;28;19939;-79
2023/12/23 02:47:03;;;;;;;;;;;14.30;99.90;;;;;;5011927;28;20011;-80
2023/12/23 02:49:29;;;;;;;;;;;14.30;99.90;;;;;;5027733;28;20354;-75
2023/12/23 02:51:55;;;;;;;;;;;14.30;99.90;;;;;;5028626;28;19944;-78
2023/12/23 02:54:21;;;;;;;;;;;14.30;99.90;;;;;;5067120;28;20311;-78
2023/12/23 02:56:46;;;;;;;;;;;14.50;99.90;;;;;;5090886;28;19961;-78
2023/12/23 02:59:12;;;;;;;;;;;14.50;99.90;;;;;;5090875;28;19959;-79
2023/12/23 03:01:38;;;;;;;;;;;14.50;99.90;;;;;;5091322;28;19924;-80
2023/12/23 03:04:04;;;;;;;;;;;14.50;99.90;;;;;;5092499;28;19908;-79
2023/12/23 03:06:30;;;;;;;;;;;14.40;99.90;;;;;;5091468;28;20027;-79
2023/12/23 03:08:55;;;;;;;;;;;14.40;99.90;;;;;;5091578;28;20015;-79
2023/12/23 03:11:21;;;;;;;;;;;14.50;99.90;;;;;;5091483;28;20003;-79
2023/12/23 03:13:47;;;;;;;;;;;14.50;99.90;;;;;;5102383;28;20287;-79
2023/12/23 03:16:17;;;;;;;;;;;14.60;99.90;;;;;;5111780;28;19942;-79
2023/12/23 03:18:43;;;;;;;;;;;14.60;99.90;;;;;;5110897;28;20275;-79
2023/12/23 03:21:08;;;;;;;;;;;14.60;99.90;;;;;;5111366;28;19908;-79
2023/12/23 03:23:34;;;;;;;;;;;14.60;99.90;;;;;;5111194;28;19915;-79
2023/12/23 03:26:00;;;;;;;;;;;14.50;99.90;;;;;;5111219;28;19908;-79
2023/12/23 03:28:26;;;;;;;;;;;14.50;99.90;;;;;;5110830;28;20010;-79
2023/12/23 03:30:52;;;;;;;;;;;14.50;99.90;;;;;;5111007;28;19966;-80
2023/12/23 03:33:18;;;;;;;;;;;14.50;99.90;;;;;;5110792;28;19908;-79
2023/12/23 03:35:43;;;;;;;;;;;14.50;99.90;;;;;;5110531;28;19976;-79
2023/12/23 03:38:09;;;;;;;;;;;14.50;99.90;;;;;;5110164;28;19959;-79
2023/12/23 03:40:35;;;;;;;;;;;14.40;99.90;;;;;;5110716;28;19916;-79
2023/12/23 03:43:01;;;;;;;;;;;14.30;99.90;;;;;;5110524;28;19924;-77
2023/12/23 03:45:27;;;;;;;;;;;14.10;99.90;;;;;;5110654;28;19907;-79
2023/12/23 03:47:53;;;;;;;;;;;14.10;99.90;;;;;;5111026;28;20090;-78
2023/12/23 03:50:21;;;;;;;;;;;14.10;99.90;;;;;;5110654;28;20264;-78
2023/12/23 03:52:47;;;;;;;;;;;14.00;99.90;;;;;;5110436;28;19912;-79
2023/12/23 03:55:13;;;;;;;;;;;14.00;99.90;;;;;;5110759;28;20221;-79
2023/12/23 03:57:39;;;;;;;;;;;14.00;99.90;;;;;;5110710;28;19922;-79
2023/12/23 04:00:05;;;;;;;;;;;14.00;99.90;;;;;;5110512;28;19911;-79
2023/12/23 04:02:31;;;;;;;;;;;14.00;99.90;;;;;;5114590;28;19956;-80
2023/12/23 04:04:57;;;;;;;;;;;14.00;99.90;;;;;;5096252;28;19948;-79
2023/12/23 04:07:22;;;;;;;;;;;14.00;99.90;;;;;;5115069;28;19915;-79
2023/12/23 04:09:49;;;;;;;;;;;14.00;99.90;;;;;;5115527;28;20298;-80
2023/12/23 04:12:15;;;;;;;;;;;14.00;99.90;;;;;;5096661;28;19973;-79
2023/12/23 04:14:40;;;;;;;;;;;14.00;99.90;;;;;;5115114;28;19912;-80
2023/12/23 04:17:07;;;;;;;;;;;14.00;99.90;;;;;;5115170;28;20275;-79
2023/12/23 04:19:33;;;;;;;;;;;14.10;99.90;;;;;;5114928;28;20351;-80
2023/12/23 04:21:58;;;;;;;;;;;14.10;99.90;;;;;;5096269;28;19972;-80
2023/12/23 04:24:28;;;;;;;;;;;14.10;99.90;;;;;;5096773;28;19908;-80
2023/12/23 04:26:54;;;;;;;;;;;14.00;99.90;;;;;;5115572;28;19974;-78
2023/12/23 04:29:20;;;;;;;;;;;14.00;99.90;;;;;;5115147;28;19908;-78
2023/12/23 04:31:46;;;;;;;;;;;14.00;99.90;;;;;;5115050;28;20327;-79
2023/12/23 04:34:12;;;;;;;;;;;14.00;99.90;;;;;;5115309;28;20504;-79
2023/12/23 04:36:38;;;;;;;;;;;14.00;99.90;;;;;;5115227;28;20239;-79
2023/12/23 04:39:05;;;;;;;;;;;14.00;99.90;;;;;;5115404;28;19908;-79
2023/12/23 04:41:34;;;;;;;;;;;13.90;99.90;;;;;;5115128;28;19912;-78
2023/12/23 04:44:05;;;;;;;;;;;13.90;99.90;;;;;;5114771;28;20360;-78
2023/12/23 04:46:31;;;;;;;;;;;14.00;99.90;;;;;;5096524;28;19918;-78
2023/12/23 04:48:57;;;;;;;;;;;14.00;99.90;;;;;;5114770;28;20010;-79
2023/12/23 04:51:22;;;;;;;;;;;13.90;99.90;;;;;;5114651;28;19955;-77
2023/12/23 04:53:48;;;;;;;;;;;13.80;99.90;;;;;;5114753;28;19908;-79
2023/12/23 04:56:14;;;;;;;;;;;13.70;99.90;;;;;;5114509;28;19915;-78
2023/12/23 04:58:40;;;;;;;;;;;13.60;99.90;;;;;;5114944;28;20082;-74
2023/12/23 05:01:06;;;;;;;;;;;13.60;99.90;;;;;;5114809;28;20015;-78
2023/12/23 05:03:34;;;;;;;;;;;13.60;99.90;;;;;;5114484;28;19950;-79
2023/12/23 05:06:00;;;;;;;;;;;13.50;99.90;;;;;;5114608;28;20017;-79
2023/12/23 05:08:26;;;;;;;;;;;13.60;99.90;;;;;;5114816;28;19960;-79
2023/12/23 05:10:51;;;;;;;;;;;13.60;99.90;;;;;;5114546;28;19942;-78
2023/12/23 05:13:17;;;;;;;;;;;13.60;99.90;;;;;;5113409;28;19915;-80
2023/12/23 05:15:43;;;;;;;;;;;13.60;99.90;;;;;;5130007;27;20244;-79
2023/12/23 05:18:09;;;;;;;;;;;13.70;99.90;;;;;;5096698;28;19993;-79
2023/12/23 05:20:34;;;;;;;;;;;13.70;99.90;;;;;;5115180;28;20267;-79
2023/12/23 05:23:00;;;;;;;;;;;13.70;99.90;;;;;;5115130;28;19911;-78
2023/12/23 05:25:26;;;;;;;;;;;13.60;99.90;;;;;;5115378;28;20440;-78
2023/12/23 05:27:52;;;;;;;;;;;13.60;99.90;;;;;;5114884;28;19921;-79
2023/12/23 05:30:18;;;;;;;;;;;13.60;99.90;;;;;;5114925;28;19912;-79
2023/12/23 05:32:43;;;;;;;;;;;13.60;99.90;;;;;;5115382;28;19908;-79
2023/12/23 05:35:09;;;;;;;;;;;13.50;99.90;;;;;;5115207;28;19937;-79
2023/12/23 05:37:35;;;;;;;;;;;13.50;99.90;;;;;;5096619;28;20040;-79
2023/12/23 05:40:01;;;;;;;;;;;13.50;99.90;;;;;;5115293;28;19915;-79
2023/12/23 05:42:27;;;;;;;;;;;13.50;99.90;;;;;;5114805;28;19953;-78
2023/12/23 05:44:52;;;;;;;;;;;13.50;99.90;;;;;;5114680;28;19914;-79
2023/12/23 05:47:18;;;;;;;;;;;13.50;99.90;;;;;;5114803;28;19919;-79
2023/12/23 05:49:44;;;;;;;;;;;13.50;99.90;;;;;;5114685;28;20310;-79
2023/12/23 05:52:10;;;;;;;;;;;13.60;99.90;;;;;;5096195;28;20244;-80
2023/12/23 05:54:36;;;;;;;;;;;13.50;99.90;;;;;;5114577;28;19911;-79
2023/12/23 05:57:02;;;;;;;;;;;13.50;99.90;;;;;;5097899;28;19934;-79
2023/12/23 05:59:27;;;;;;;;;;;13.60;99.90;;;;;;5096385;28;19919;-79
2023/12/23 06:01:53;;;;;;;;;;;13.60;99.90;;;;;;5114821;28;20333;-79
2023/12/23 06:04:19;;;;;;;;;;;13.60;99.90;;;;;;5114542;28;19912;-78
2023/12/23 06:06:45;;;;;;;;;;;13.60;99.90;;;;;;5095963;28;20389;-78
2023/12/23 06:09:11;;;;;;;;;;;13.60;99.90;;;;;;5114616;28;19908;-79
2023/12/23 06:11:36;;;;;;;;;;;13.50;99.90;;;;;;5096159;28;19973;-79
2023/12/23 06:14:02;;;;;;;;;;;13.50;99.90;;;;;;5114586;28;20265;-79
2023/12/23 06:16:28;;;;;;;;;;;13.50;99.90;;;;;;5114671;28;19931;-76
2023/12/23 06:18:54;;;;;;;;;;;13.50;99.90;;;;;;5095725;28;20356;-79
2023/12/23 06:21:20;;;;;;;;;;;13.50;99.90;;;;;;5114254;28;19919;-78
2023/12/23 06:23:46;;;;;;;;;;;13.40;99.90;;;;;;5113243;28;19911;-76
2023/12/23 06:26:11;;;;;;;;;;;13.40;99.90;;;;;;5111295;28;19912;-77
2023/12/23 06:28:37;;;;;;;;;;;13.40;99.90;;;;;;5111867;28;19915;-79
2023/12/23 06:31:03;;;;;;;;;;;13.40;99.90;;;;;;5106757;28;19911;-79
2023/12/23 06:33:30;;;;;;;;;;;13.50;99.90;;;;;;5113605;28;20250;-78
2023/12/23 06:35:55;;;;;;;;;;;13.50;99.90;;;;;;5091523;28;19931;-79
2023/12/23 06:38:21;;;;;;;;;;;13.60;99.90;;;;;;5113324;28;20003;-79
2023/12/23 06:40:47;;;;;;;;;;;13.70;99.90;;;;;;5106631;28;19939;-79
2023/12/23 06:43:13;;;;;;;;;;;13.80;99.90;;;;;;5113386;28;19908;-79
2023/12/23 06:45:38;;;;;;;;;;;14.10;99.90;;;;;;5112923;28;19981;-79
2023/12/23 06:48:05;;;;;;;;;;;14.30;99.90;;;;;;5112937;28;19922;-79
2023/12/23 06:50:30;;;;;;;;;;;14.60;99.90;;;;;;5113219;28;19950;-77
2023/12/23 06:52:57;;;;;;;;;;;15.00;99.90;;;;;;5095296;28;19914;-78
2023/12/23 06:55:23;;;;;;;;;;;15.40;99.90;;;;;;5112884;28;19907;-79
2023/12/23 06:57:52;;;;;;;;;;;15.90;99.90;;;;;;5113112;28;19907;-79
2023/12/23 07:00:18;;;;;;;;;;;16.10;99.90;;;;;;5112489;28;19919;-79
2023/12/23 07:02:45;;;;;;;;;;;16.40;99.90;;;;;;5112874;28;20053;-79
2023/12/23 07:05:11;;;;;;;;;;;16.80;99.90;;;;;;5094743;28;19966;-79
2023/12/23 07:07:36;;;;;;;;;;;17.10;99.90;;;;;;5106230;28;19955;-79
2023/12/23 07:10:03;;;;;;;;;;;17.40;99.90;;;;;;5111732;28;20267;-78
2023/12/23 07:12:29;;;;;;;;;;;17.60;99.90;;;;;;5108886;28;20002;-78
2023/12/23 07:14:54;;;;;;;;;;;17.70;99.90;;;;;;5093996;28;20272;-78
2023/12/23 07:17:22;;;;;;;;;;;17.60;99.90;;;;;;5091622;28;19907;-73
2023/12/23 07:19:47;;;;;;;;;;;17.60;99.90;;;;;;5108889;28;19915;-78
2023/12/23 07:22:13;;;;;;;;;;;17.80;99.90;;;;;;5112547;28;19923;-78
2023/12/23 07:24:39;;;;;;;;;;;18.10;99.90;;;;;;5112405;28;19956;-78
2023/12/23 07:27:05;;;;;;;;;;;18.20;99.90;;;;;;5113267;28;19962;-78
2023/12/23 07:29:31;;;;;;;;;;;18.30;99.90;;;;;;5093699;28;19919;-75
2023/12/23 07:31:57;;;;;;;;;;;18.10;99.90;;;;;;5106122;28;19908;-79
2023/12/23 07:34:23;;;;;;;;;;;18.30;99.90;;;;;;5111789;28;19918;-77
2023/12/23 07:36:49;;;;;;;;;;;18.60;99.90;;;;;;5114981;28;19908;-78
2023/12/23 07:39:14;;;;;;;;;;;19.20;99.90;;;;;;5119285;28;19908;-74
2023/12/23 07:41:40;;;;;;;;;;;19.50;99.90;;;;;;5119311;28;20048;-74
2023/12/23 07:44:06;;;;;;;;;;;19.60;99.90;;;;;;5119157;28;19912;-74
2023/12/23 07:46:32;;;;;;;;;;;19.70;99.90;;;;;;5118527;28;20271;-78
2023/12/23 07:48:59;;;;;;;;;;;19.70;99.90;;;;;;5117654;28;19916;-74
2023/12/23 07:51:25;;;;;;;;;;;19.60;99.90;;;;;;5113598;28;19919;-75
2023/12/23 07:53:51;;;;;;;;;;;19.40;99.90;;;;;;5119949;28;19907;-74
2023/12/23 07:56:17;;;;;;;;;;;19.40;99.90;;;;;;5116847;28;19908;-76
2023/12/23 07:58:42;;;;;;;;;;;19.10;99.90;;;;;;5118959;28;19912;-75
2023/12/23 08:01:08;;;;;;;;;;;18.90;99.90;;;;;;5119014;28;19985;-73
2023/12/23 08:03:34;;;;;;;;;;;18.70;99.90;;;;;;5100837;28;19919;-76
2023/12/23 08:06:00;;;;;;;;;;;18.60;99.90;;;;;;5097380;28;20383;-77
2023/12/23 08:08:26;;;;;;;;;;;18.50;99.90;;;;;;5118221;28;19926;-78
2023/12/23 08:10:54;;;;;;;;;;;18.40;99.90;;;;;;5119035;28;19912;-78
2023/12/23 08:13:20;;;;;;;;;;;18.30;99.90;;;;;;5111514;28;19908;-73
2023/12/23 08:15:46;;;;;;;;;;;18.20;99.90;;;;;;5118954;28;19908;-75
2023/12/23 08:18:12;;;;;;;;;;;18.10;99.90;;;;;;5119029;28;19953;-72
2023/12/23 08:20:38;;;;;;;;;;;18.10;99.90;;;;;;5118897;28;19907;-71
2023/12/23 08:23:04;;;;;;;;;;;18.10;99.90;;;;;;5118534;28;20016;-72
2023/12/23 08:25:30;;;;;;;;;;;18.20;99.90;;;;;;5100147;28;19912;-75
2023/12/23 08:27:56;;;;;;;;;;;18.20;99.90;;;;;;5119176;28;20066;-74
2023/12/23 08:30:22;;;;;;;;;;;18.20;99.90;;;;;;5118625;28;19936;-78
2023/12/23 08:32:47;;;;;;;;;;;18.30;99.90;;;;;;5111337;28;20124;-78
2023/12/23 08:35:14;;;;;;;;;;;18.50;99.90;;;;;;5109584;28;19916;-74
2023/12/23 08:37:40;;;;;;;;;;;18.60;99.90;;;;;;5118684;28;19934;-74
2023/12/23 08:40:06;;;;;;;;;;;18.60;99.90;;;;;;5114538;28;19908;-75
2023/12/23 08:42:32;;;;;;;;;;;18.40;99.90;;;;;;5100285;28;19932;-75
2023/12/23 08:44:57;;;;;;;;;;;18.50;99.90;;;;;;5118704;28;20351;-75
2023/12/23 08:47:23;;;;;;;;;;;18.80;99.90;;;;;;5117091;28;19919;-80
2023/12/23 08:49:49;;;;;;;;;;;18.90;99.90;;;;;;5096316;28;19965;-79
2023/12/23 08:52:15;;;;;;;;;;;19.00;99.90;;;;;;5098892;28;19927;-80
2023/12/23 08:54:41;;;;;;;;;;;19.10;99.90;;;;;;5115734;28;19908;-79
2023/12/23 08:57:07;;;;;;;;;;;19.40;99.90;;;;;;5115114;28;20272;-79
2023/12/23 08:59:33;;;;;;;;;;;19.40;99.90;;;;;;5115113;28;19908;-79
2023/12/23 09:02:02;;;;;;;;;;;19.40;99.90;;;;;;5115559;28;19919;-80
2023/12/23 09:04:28;;;;;;;;;;;19.40;99.90;;;;;;5115070;28;19914;-81
2023/12/23 09:06:55;;;;;;;;;;;19.10;99.90;;;;;;5115250;28;19969;-80
2023/12/23 09:09:21;;;;;;;;;;;19.10;99.90;;;;;;5115258;28;19915;-78
2023/12/23 09:11:46;;;;;;;;;;;19.00;99.90;;;;;;5115438;28;19915;-80
2023/12/23 09:14:14;;;;;;;;;;;19.20;99.90;;;;;;5115366;28;20285;-82
2023/12/23 09:16:40;;;;;;;;;;;19.20;99.90;;;;;;5115839;28;19912;-81
2023/12/23 09:19:06;;;;;;;;;;;19.10;99.90;;;;;;5116561;28;19908;-81
2023/12/23 09:21:32;;;;;;;;;;;18.80;99.90;;;;;;5105585;28;20316;-73
2023/12/23 09:23:58;;;;;;;;;;;18.90;99.90;;;;;;5132783;27;19959;-83
2023/12/23 09:26:27;;;;;;;;;;;18.90;99.90;;;;;;5095893;28;20012;-76
2023/12/23 09:28:56;;;;;;;;;;;18.90;99.90;;;;;;5098104;28;20011;-76
2023/12/23 09:31:21;;;;;;;;;;;18.90;99.90;;;;;;5113942;28;19981;-74
2023/12/23 09:33:47;;;;;;;;;;;18.60;99.90;;;;;;5111145;28;20010;-71
2023/12/23 09:36:13;;;;;;;;;;;18.60;99.90;;;;;;5114684;28;20308;-70
2023/12/23 09:38:39;;;;;;;;;;;18.90;99.90;;;;;;5110794;28;20327;-70
2023/12/23 09:41:05;;;;;;;;;;;19.00;99.90;;;;;;5089374;28;19965;-70
2023/12/23 09:43:32;;;;;;;;;;;19.10;99.90;;;;;;5114295;28;20002;-70
2023/12/23 09:46:00;;;;;;;;;;;19.20;99.90;;;;;;5110357;28;19924;-69
2023/12/23 09:48:27;;;;;;;;;;;19.20;99.90;;;;;;5112314;28;20422;-65
2023/12/23 09:50:53;;;;;;;;;;;18.90;99.90;;;;;;5114178;28;19930;-66
2023/12/23 09:53:20;;;;;;;;;;;19.00;99.90;;;;;;5114462;28;20364;-70
2023/12/23 09:55:47;;;;;;;;;;;19.10;99.90;;;;;;5094437;28;19915;-71
2023/12/23 09:58:13;;;;;;;;;;;19.30;99.90;;;;;;5093925;28;20430;-70
2023/12/23 10:00:45;;;;;;;;;;;19.30;99.90;;;;;;5093844;28;19932;-70
2023/12/23 10:03:11;;;;;;;;;;;19.30;99.90;;;;;;5101468;28;19919;-69
2023/12/23 10:05:43;;;;;;;;;;;19.40;99.90;;;;;;5105895;28;19911;-71
2023/12/23 10:08:09;;;;;;;;;;;19.50;99.90;;;;;;5103459;28;20031;-71
2023/12/23 10:10:34;;;;;;;;;;;19.30;99.90;;;;;;5114025;28;19912;-70
2023/12/23 10:13:00;;;;;;;;;;;19.20;99.90;;;;;;5111482;28;19923;-70
2023/12/23 10:15:27;;;;;;;;;;;18.90;99.90;;;;;;5104728;28;19915;-70
2023/12/23 10:17:53;;;;;;;;;;;19.00;99.90;;;;;;5114400;28;19914;-71
2023/12/23 10:20:19;;;;;;;;;;;19.30;99.90;;;;;;5114251;28;19908;-71
2023/12/23 10:22:45;;;;;;;;;;;19.50;99.90;;;;;;5113064;28;19916;-70
2023/12/23 10:25:14;;;;;;;;;;;19.40;99.90;;;;;;5112532;28;19919;-70
2023/12/23 10:27:41;;;;;;;;;;;19.30;99.90;;;;;;5112626;28;19920;-66
2023/12/23 10:30:12;;;;;;;;;;;19.60;99.90;;;;;;5113918;28;20276;-69
2023/12/23 10:32:39;;;;;;;;;;;19.50;99.90;;;;;;5109240;28;20002;-70
2023/12/23 10:35:09;;;;;;;;;;;19.20;99.90;;;;;;5110429;28;19912;-71
2023/12/23 10:37:36;;;;;;;;;;;19.40;99.90;;;;;;5113696;28;19912;-71
2023/12/23 10:40:11;;;;;;;;;;;19.20;99.90;;;;;;5111621;28;19943;-66
2023/12/23 10:42:39;;;;;;;;;;;19.00;99.90;;;;;;5108467;28;19962;-66
2023/12/23 10:45:06;;;;;;;;;;;19.00;99.90;;;;;;5113859;28;19912;-69
2023/12/23 10:47:33;;;;;;;;;;;18.80;99.90;;;;;;5113708;28;20420;-70
2023/12/23 10:49:59;;;;;;;;;;;19.00;99.90;;;;;;5113814;28;19970;-69
2023/12/23 10:52:26;;;;;;;;;;;19.30;99.90;;;;;;5108141;28;20240;-70
2023/12/23 10:54:52;;;;;;;;;;;19.30;99.90;;;;;;5110564;28;19920;-70
2023/12/23 10:57:19;;;;;;;;;;;18.70;99.90;;;;;;5112471;28;19912;-70
2023/12/23 10:59:45;;;;;;;;;;;18.60;99.90;;;;;;5108946;28;20002;-71
2023/12/23 11:02:14;;;;;;;;;;;18.80;99.90;;;;;;5113139;28;19993;-70
2023/12/23 11:04:46;;;;;;;;;;;19.10;99.90;;;;;;5094914;28;19912;-70
2023/12/23 11:07:14;;;;;;;;;;;19.10;99.90;;;;;;5106636;28;20363;-70
2023/12/23 11:09:41;;;;;;;;;;;19.20;99.90;;;;;;5094725;28;19919;-66
2023/12/23 11:12:08;;;;;;;;;;;19.20;99.90;;;;;;5113571;28;19931;-70
2023/12/23 11:14:35;;;;;;;;;;;19.20;99.90;;;;;;5113369;28;20263;-70
2023/12/23 11:17:01;;;;;;;;;;;19.40;99.90;;;;;;5113613;28;19965;-69
2023/12/23 11:19:26;;;;;;;;;;;19.50;99.90;;;;;;5113610;28;19907;-70
2023/12/23 11:22:11;;;;;;;;;;;19.60;99.90;;;;;;5113893;28;19907;-69
2023/12/23 11:24:37;;;;;;;;;;;19.60;99.90;;;;;;5113527;28;20464;-69
2023/12/23 11:27:04;;;;;;;;;;;19.50;99.90;;;;;;5113543;28;19919;-70
2023/12/23 11:29:30;;;;;;;;;;;19.50;99.90;;;;;;5112782;28;19908;-70
2023/12/23 11:32:09;;;;;;;;;;;19.60;99.90;;;;;;5112603;28;19930;-70
2023/12/23 11:34:34;;;;;;;;;;;19.80;99.90;;;;;;5094025;28;19908;-70
2023/12/23 11:37:00;;;;;;;;;;;20.00;99.90;;;;;;5094184;28;19999;-70
2023/12/23 11:39:26;;;;;;;;;;;20.10;99.90;;;;;;5112641;28;20356;-70
2023/12/23 11:41:52;;;;;;;;;;;20.00;99.90;;;;;;5093972;28;19915;-71
2023/12/23 11:44:18;;;;;;;;;;;20.00;99.90;;;;;;5094569;28;19939;-72
2023/12/23 11:46:43;;;;;;;;;;;20.00;99.90;;;;;;5112746;28;19958;-71
2023/12/23 11:49:10;;;;;;;;;;;20.00;99.90;;;;;;5113009;28;19911;-71
2023/12/23 11:51:37;;;;;;;;;;;20.00;99.90;;;;;;5113004;28;19908;-71
2023/12/23 11:54:03;;;;;;;;;;;20.00;99.90;;;;;;5113217;28;19908;-70
2023/12/23 11:56:29;;;;;;;;;;;19.90;99.90;;;;;;5113268;28;20305;-70
2023/12/23 11:58:55;;;;;;;;;;;19.90;99.90;;;;;;5113706;28;20389;-70
2023/12/23 12:01:20;;;;;;;;;;;19.90;99.90;;;;;;5112701;28;19924;-67
2023/12/23 12:03:47;;;;;;;;;;;19.80;99.90;;;;;;5113133;28;19994;-71
2023/12/23 12:06:13;;;;;;;;;;;19.90;99.90;;;;;;5113113;28;19994;-70
2023/12/23 12:08:38;;;;;;;;;;;20.10;99.90;;;;;;5112840;28;20015;-71
2023/12/23 12:11:04;;;;;;;;;;;20.20;99.90;;;;;;5094289;28;19908;-69
2023/12/23 12:13:30;;;;;;;;;;;20.00;99.90;;;;;;5112853;28;19908;-71
2023/12/23 12:15:56;;;;;;;;;;;19.90;99.90;;;;;;5112781;28;19910;-71
2023/12/23 12:18:22;;;;;;;;;;;20.00;99.90;;;;;;5113692;28;19907;-70
2023/12/23 12:20:48;;;;;;;;;;;20.10;99.90;;;;;;5113153;28;19998;-70
2023/12/23 12:23:14;;;;;;;;;;;20.10;99.90;;;;;;5116678;28;19912;-71
2023/12/23 12:25:39;;;;;;;;;;;19.90;99.90;;;;;;5116434;28;19919;-70
2023/12/23 12:28:06;;;;;;;;;;;20.00;99.90;;;;;;5117022;28;19969;-71
2023/12/23 12:30:31;;;;;;;;;;;19.90;99.90;;;;;;5116734;28;20360;-69
2023/12/23 12:32:58;;;;;;;;;;;19.90;99.90;;;;;;5116681;28;19908;-69
2023/12/23 12:35:24;;;;;;;;;;;19.80;99.90;;;;;;5116859;28;19914;-70
2023/12/23 12:37:50;;;;;;;;;;;19.80;99.90;;;;;;5116231;28;20278;-69
2023/12/23 12:40:16;;;;;;;;;;;19.80;99.90;;;;;;5116566;28;20000;-67
2023/12/23 12:42:46;;;;;;;;;;;19.90;99.90;;;;;;5114688;28;19912;-70
2023/12/23 12:45:12;;;;;;;;;;;19.80;99.90;;;;;;5096133;28;19923;-69
2023/12/23 12:47:41;;;;;;;;;;;19.90;99.90;;;;;;5098291;28;20225;-70
2023/12/23 12:50:07;;;;;;;;;;;20.10;99.90;;;;;;5110725;28;19912;-69
2023/12/23 12:52:33;;;;;;;;;;;20.20;99.90;;;;;;5115600;28;19931;-70
2023/12/23 12:55:00;;;;;;;;;;;20.20;99.90;;;;;;5111529;28;19920;-70
2023/12/23 12:57:29;;;;;;;;;;;20.20;99.90;;;;;;5108376;28;19911;-69
2023/12/23 12:59:55;;;;;;;;;;;19.90;99.90;;;;;;5106384;28;19912;-70
2023/12/23 13:02:22;;;;;;;;;;;19.70;99.90;;;;;;5109424;28;19926;-69
2023/12/23 13:04:49;;;;;;;;;;;19.30;99.90;;;;;;5115228;28;19911;-69
2023/12/23 13:07:16;;;;;;;;;;;19.50;99.90;;;;;;5110185;28;20022;-69
2023/12/23 13:09:42;;;;;;;;;;;19.60;99.90;;;;;;5112690;28;20008;-70
2023/12/23 13:12:08;;;;;;;;;;;19.50;99.90;;;;;;5106330;28;20340;-64
2023/12/23 13:14:35;;;;;;;;;;;19.30;99.90;;;;;;5112640;28;19999;-65
2023/12/23 13:17:01;;;;;;;;;;;19.20;99.90;;;;;;5097006;28;19916;-66
2023/12/23 13:19:27;;;;;;;;;;;19.20;99.90;;;;;;5109689;28;19912;-65
2023/12/23 13:21:52;;;;;;;;;;;19.00;99.90;;;;;;5108442;28;20340;-66
2023/12/23 13:24:18;;;;;;;;;;;18.90;99.90;;;;;;5096116;28;19915;-66
2023/12/23 13:26:45;;;;;;;;;;;18.90;99.90;;;;;;5115981;28;19915;-66
2023/12/23 13:29:11;;;;;;;;;;;18.70;99.90;;;;;;5096643;28;19919;-66
2023/12/23 13:31:36;;;;;;;;;;;18.70;99.90;;;;;;5108262;28;19930;-64
2023/12/23 13:34:03;;;;;;;;;;;18.60;99.90;;;;;;5093000;28;19920;-64
2023/12/23 13:36:29;;;;;;;;;;;18.70;99.90;;;;;;5115536;28;19912;-65
2023/12/23 13:38:55;;;;;;;;;;;18.80;99.90;;;;;;5096866;28;19958;-64
2023/12/23 13:41:28;;;;;;;;;;;18.60;99.90;;;;;;5114880;28;20280;-64
2023/12/23 13:44:07;;;;;;;;;;;18.80;99.90;;;;;;5109693;28;19919;-64
2023/12/23 13:46:33;;;;;;;;;;;18.80;99.90;;;;;;5114002;28;19981;-65
2023/12/23 13:48:59;;;;;;;;;;;18.80;99.90;;;;;;5115464;28;19945;-68
2023/12/23 13:51:25;;;;;;;;;;;18.70;99.90;;;;;;5114377;28;20421;-70
2023/12/23 13:53:51;;;;;;;;;;;18.80;99.90;;;;;;5111627;28;19915;-69
2023/12/23 13:56:17;;;;;;;;;;;18.90;99.90;;;;;;5113012;28;19912;-64
2023/12/23 13:58:43;;;;;;;;;;;18.80;99.90;;;;;;5111742;28;19912;-65
2023/12/23 14:01:09;;;;;;;;;;;18.50;99.90;;;;;;5113051;28;19920;-69
2023/12/23 14:03:35;;;;;;;;;;;18.60;99.90;;;;;;5111107;28;19912;-69
2023/12/23 14:06:01;;;;;;;;;;;18.60;99.90;;;;;;5110150;28;20307;-68
2023/12/23 14:08:27;;;;;;;;;;;18.60;99.90;;;;;;5109276;28;19956;-70
2023/12/23 14:10:53;;;;;;;;;;;18.50;99.90;;;;;;5106767;28;20041;-66